RYR50ZE LFMU-EGGW
Flight info
| Callsign | RYR50ZE |
|---|---|
| Flight time | N/A |
| Altitude | 36000 |
| Route | FJR DCT NG DCT MOLEN DCT MTL DCT ETREK DCT MADOT DCT MOPEM DCT CACHI DCT AVLON DCT OKRIX DCT BRY DCT CLM DCT KOPOR DCT PIREG DCT SOSUN DCT SUBIP UM733 UNDUG |
| Aircraft | B738/M-SDE2E3FGHIRWXY/LB1 |
Departure
| Time | 2026-05-06 15:19 |
|---|---|
| Airport | Béziers Vias airport (LFMU) |
Arrival
| Time | N/A |
|---|---|
| Airport | London Luton Airport (EGGW) |
| Time | Latitude | Longitude | Altitude | Speed | Heading |
|---|---|---|---|---|---|
| 2026-05-06 14:49 | 43.32129 | 3.35422 | 53 ft | 0 kts | 186° |
| 2026-05-06 15:12 | 43.32130 | 3.35422 | 55 ft | 1 kts | 186° |
| 2026-05-06 15:12 | 43.32143 | 3.35424 | 47 ft | 4 kts | 210° |
| 2026-05-06 15:13 | 43.32154 | 3.35446 | 48 ft | 4 kts | 284° |
| 2026-05-06 15:13 | 43.32149 | 3.35464 | 48 ft | 1 kts | 305° |
| 2026-05-06 15:13 | 43.32148 | 3.35465 | 48 ft | 0 kts | 305° |
| 2026-05-06 15:15 | 43.32168 | 3.35420 | 48 ft | 12 kts | 289° |
| 2026-05-06 15:15 | 43.32203 | 3.35328 | 53 ft | 12 kts | 349° |
| 2026-05-06 15:15 | 43.32285 | 3.35332 | 56 ft | 12 kts | 3° |
| 2026-05-06 15:16 | 43.32337 | 3.35397 | 55 ft | 11 kts | 88° |
| 2026-05-06 15:16 | 43.32332 | 3.35529 | 54 ft | 22 kts | 94° |
| 2026-05-06 15:16 | 43.32320 | 3.35752 | 53 ft | 23 kts | 94° |
| 2026-05-06 15:16 | 43.32309 | 3.35968 | 49 ft | 22 kts | 94° |
| 2026-05-06 15:17 | 43.32297 | 3.36177 | 50 ft | 22 kts | 94° |
| 2026-05-06 15:17 | 43.32286 | 3.36381 | 51 ft | 21 kts | 94° |
| 2026-05-06 15:17 | 43.32270 | 3.36578 | 50 ft | 20 kts | 96° |
| 2026-05-06 15:17 | 43.32266 | 3.36720 | 50 ft | 10 kts | 105° |
| 2026-05-06 15:18 | 43.32237 | 3.36709 | 50 ft | 7 kts | 293° |
| 2026-05-06 15:18 | 43.32267 | 3.36659 | 50 ft | 7 kts | 298° |
| 2026-05-06 15:18 | 43.32276 | 3.36599 | 49 ft | 6 kts | 275° |
| 2026-05-06 15:18 | 43.32277 | 3.36507 | 50 ft | 29 kts | 273° |
| 2026-05-06 15:19 | 43.32316 | 3.35829 | 53 ft | 111 kts | 274° |
| 2026-05-06 15:19 | 43.32391 | 3.34475 | 178 ft | 167 kts | 274° |
| 2026-05-06 15:19 | 43.32459 | 3.32751 | 831 ft | 188 kts | 271° |
| 2026-05-06 15:19 | 43.32715 | 3.31030 | 1960 ft | 184 kts | 293° |
| 2026-05-06 15:20 | 43.33251 | 3.29445 | 3031 ft | 182 kts | 291° |
| 2026-05-06 15:20 | 43.33832 | 3.27917 | 4000 ft | 184 kts | 311° |
| 2026-05-06 15:20 | 43.34980 | 3.27076 | 4846 ft | 192 kts | 340° |
| 2026-05-06 15:20 | 43.36320 | 3.26963 | 5699 ft | 198 kts | 7° |
| 2026-05-06 15:21 | 43.37553 | 3.27846 | 6503 ft | 206 kts | 42° |
| 2026-05-06 15:21 | 43.38234 | 3.29576 | 7264 ft | 211 kts | 77° |
| 2026-05-06 15:21 | 43.38406 | 3.31554 | 8064 ft | 211 kts | 83° |
| 2026-05-06 15:21 | 43.38538 | 3.33562 | 8847 ft | 211 kts | 84° |
| 2026-05-06 15:22 | 43.38669 | 3.35577 | 9594 ft | 212 kts | 84° |
| 2026-05-06 15:22 | 43.38800 | 3.37593 | 10265 ft | 212 kts | 84° |
| 2026-05-06 15:22 | 43.38932 | 3.39614 | 10907 ft | 212 kts | 84° |
| 2026-05-06 15:22 | 43.39065 | 3.41638 | 11541 ft | 212 kts | 84° |
| 2026-05-06 15:23 | 43.39198 | 3.43656 | 12175 ft | 212 kts | 84° |
| 2026-05-06 15:23 | 43.39332 | 3.45672 | 12794 ft | 212 kts | 84° |
| 2026-05-06 15:23 | 43.39700 | 3.47611 | 13362 ft | 209 kts | 60° |
| 2026-05-06 15:23 | 43.40364 | 3.49384 | 13913 ft | 209 kts | 59° |
| 2026-05-06 15:24 | 43.41028 | 3.51161 | 14390 ft | 209 kts | 60° |
| 2026-05-06 15:24 | 43.41689 | 3.52940 | 14868 ft | 209 kts | 60° |
| 2026-05-06 15:24 | 43.42346 | 3.54719 | 15319 ft | 208 kts | 60° |
| 2026-05-06 15:24 | 43.43000 | 3.56500 | 15770 ft | 208 kts | 60° |
| 2026-05-06 15:25 | 43.43644 | 3.58257 | 16197 ft | 208 kts | 60° |
| 2026-05-06 15:25 | 43.44295 | 3.60041 | 16614 ft | 208 kts | 60° |
| 2026-05-06 15:25 | 43.44944 | 3.61823 | 17010 ft | 208 kts | 61° |
| 2026-05-06 15:25 | 43.45592 | 3.63604 | 17415 ft | 208 kts | 61° |
| 2026-05-06 15:26 | 43.46240 | 3.65387 | 17776 ft | 208 kts | 61° |
| 2026-05-06 15:26 | 43.46888 | 3.67174 | 18125 ft | 208 kts | 61° |
| 2026-05-06 15:26 | 43.47534 | 3.68957 | 18416 ft | 208 kts | 61° |
| 2026-05-06 15:26 | 43.48181 | 3.70746 | 18694 ft | 209 kts | 61° |
| 2026-05-06 15:27 | 43.48828 | 3.72537 | 18959 ft | 209 kts | 61° |
| 2026-05-06 15:27 | 43.49474 | 3.74328 | 19219 ft | 209 kts | 61° |
| 2026-05-06 15:27 | 43.50120 | 3.76118 | 19462 ft | 208 kts | 61° |
| 2026-05-06 15:27 | 43.50766 | 3.77908 | 19674 ft | 209 kts | 62° |
| 2026-05-06 15:28 | 43.51403 | 3.79676 | 19888 ft | 209 kts | 62° |
| 2026-05-06 15:28 | 43.52049 | 3.81469 | 20094 ft | 209 kts | 62° |
| 2026-05-06 15:28 | 43.52694 | 3.83264 | 20280 ft | 209 kts | 62° |
| 2026-05-06 15:28 | 43.53339 | 3.85058 | 20462 ft | 209 kts | 62° |
| 2026-05-06 15:29 | 43.53985 | 3.86854 | 20641 ft | 209 kts | 62° |
| 2026-05-06 15:29 | 43.54631 | 3.88653 | 20811 ft | 209 kts | 62° |
| 2026-05-06 15:29 | 43.55277 | 3.90453 | 20966 ft | 210 kts | 62° |
| 2026-05-06 15:29 | 43.55925 | 3.92261 | 21102 ft | 210 kts | 62° |
| 2026-05-06 15:30 | 43.56573 | 3.94068 | 21254 ft | 210 kts | 62° |
| 2026-05-06 15:30 | 43.57221 | 3.95876 | 21379 ft | 210 kts | 62° |
| 2026-05-06 15:30 | 43.57884 | 3.97676 | 21489 ft | 210 kts | 54° |
| 2026-05-06 15:30 | 43.58800 | 3.99194 | 21589 ft | 207 kts | 42° |
| 2026-05-06 15:31 | 43.59794 | 4.00649 | 21696 ft | 208 kts | 44° |
| 2026-05-06 15:31 | 43.60774 | 4.02124 | 21795 ft | 208 kts | 44° |
| 2026-05-06 15:31 | 43.61748 | 4.03601 | 21900 ft | 208 kts | 44° |
| 2026-05-06 15:32 | 43.63714 | 4.06599 | 22061 ft | 216 kts | 45° |
| 2026-05-06 15:32 | 43.64740 | 4.08166 | 21990 ft | 235 kts | 45° |
| 2026-05-06 15:32 | 43.65904 | 4.09945 | 21741 ft | 263 kts | 45° |
| 2026-05-06 15:32 | 43.67164 | 4.11878 | 21827 ft | 277 kts | 46° |
| 2026-05-06 15:33 | 43.68489 | 4.13918 | 21939 ft | 292 kts | 46° |
| 2026-05-06 15:33 | 43.69873 | 4.16052 | 22045 ft | 305 kts | 46° |
| 2026-05-06 15:33 | 43.71320 | 4.18288 | 22126 ft | 319 kts | 46° |
| 2026-05-06 15:33 | 43.72841 | 4.20639 | 22194 ft | 335 kts | 46° |
| 2026-05-06 15:34 | 43.74420 | 4.23080 | 22296 ft | 354 kts | 46° |
| 2026-05-06 15:34 | 43.76102 | 4.25685 | 22447 ft | 372 kts | 46° |
| 2026-05-06 15:34 | 43.77860 | 4.28411 | 22583 ft | 389 kts | 46° |
| 2026-05-06 15:34 | 43.79703 | 4.31271 | 22720 ft | 406 kts | 47° |
| 2026-05-06 15:35 | 43.81617 | 4.34242 | 22911 ft | 419 kts | 47° |
| 2026-05-06 15:35 | 43.83590 | 4.37273 | 23357 ft | 425 kts | 44° |
| 2026-05-06 15:35 | 43.85835 | 4.39946 | 23837 ft | 425 kts | 33° |
| 2026-05-06 15:35 | 43.88362 | 4.42106 | 24261 ft | 427 kts | 23° |
| 2026-05-06 15:36 | 43.91068 | 4.43686 | 24649 ft | 430 kts | 17° |
| 2026-05-06 15:36 | 43.93890 | 4.45148 | 25032 ft | 434 kts | 17° |
| 2026-05-06 15:36 | 43.96738 | 4.46605 | 25436 ft | 438 kts | 17° |
| 2026-05-06 15:36 | 43.99613 | 4.48110 | 25843 ft | 443 kts | 17° |
| 2026-05-06 15:37 | 44.02509 | 4.49665 | 26234 ft | 447 kts | 17° |
| 2026-05-06 15:37 | 44.05428 | 4.51248 | 26614 ft | 452 kts | 17° |
| 2026-05-06 15:37 | 44.08383 | 4.52839 | 26995 ft | 456 kts | 17° |
| 2026-05-06 15:37 | 44.11324 | 4.54401 | 27363 ft | 460 kts | 17° |
| 2026-05-06 15:38 | 44.14334 | 4.55991 | 27733 ft | 464 kts | 16° |
| 2026-05-06 15:38 | 44.17365 | 4.57593 | 28082 ft | 468 kts | 16° |
| 2026-05-06 15:38 | 44.20428 | 4.59214 | 28438 ft | 471 kts | 16° |
| 2026-05-06 15:38 | 44.23510 | 4.60852 | 28794 ft | 475 kts | 16° |
| 2026-05-06 15:39 | 44.26608 | 4.62502 | 29128 ft | 479 kts | 16° |
| 2026-05-06 15:39 | 44.29735 | 4.64171 | 29443 ft | 483 kts | 16° |
| 2026-05-06 15:39 | 44.32885 | 4.65854 | 29770 ft | 486 kts | 16° |
| 2026-05-06 15:39 | 44.36054 | 4.67550 | 30063 ft | 490 kts | 16° |
| 2026-05-06 15:40 | 44.39254 | 4.69265 | 30397 ft | 491 kts | 17° |
| 2026-05-06 15:40 | 44.42392 | 4.70951 | 30865 ft | 488 kts | 17° |
| 2026-05-06 15:40 | 44.45553 | 4.72649 | 31334 ft | 485 kts | 17° |
| 2026-05-06 15:40 | 44.48703 | 4.74341 | 31744 ft | 485 kts | 17° |
| 2026-05-06 15:41 | 44.51881 | 4.75941 | 32105 ft | 482 kts | 11° |
| 2026-05-06 15:41 | 44.55142 | 4.76884 | 32478 ft | 475 kts | 1° |
| 2026-05-06 15:41 | 44.58418 | 4.77186 | 32901 ft | 468 kts | 354° |
| 2026-05-06 15:41 | 44.61635 | 4.76835 | 33290 ft | 460 kts | 345° |
| 2026-05-06 15:42 | 44.64806 | 4.76131 | 33653 ft | 459 kts | 345° |
| 2026-05-06 15:42 | 44.67917 | 4.75391 | 34019 ft | 458 kts | 345° |
| 2026-05-06 15:42 | 44.71053 | 4.74641 | 34293 ft | 458 kts | 345° |
| 2026-05-06 15:42 | 44.74208 | 4.73900 | 34551 ft | 458 kts | 345° |
| 2026-05-06 15:43 | 44.77363 | 4.73177 | 34859 ft | 457 kts | 346° |
| 2026-05-06 15:43 | 44.80463 | 4.72478 | 35154 ft | 457 kts | 346° |
| 2026-05-06 15:43 | 44.83640 | 4.71770 | 35455 ft | 456 kts | 346° |
| 2026-05-06 15:43 | 44.86779 | 4.71073 | 35739 ft | 455 kts | 346° |
| 2026-05-06 15:44 | 44.89911 | 4.70376 | 35930 ft | 457 kts | 346° |
| 2026-05-06 15:44 | 44.93037 | 4.69678 | 35903 ft | 461 kts | 347° |
| 2026-05-06 15:44 | 44.99373 | 4.68263 | 35913 ft | 458 kts | 347° |
| 2026-05-06 15:45 | 45.05617 | 4.66868 | 35919 ft | 452 kts | 347° |
| 2026-05-06 15:45 | 45.11784 | 4.65480 | 35923 ft | 452 kts | 347° |
| 2026-05-06 15:46 | 45.17993 | 4.64083 | 35917 ft | 452 kts | 347° |
| 2026-05-06 15:46 | 45.24213 | 4.62669 | 35904 ft | 452 kts | 347° |
| 2026-05-06 15:47 | 45.30436 | 4.61241 | 35914 ft | 452 kts | 347° |
| 2026-05-06 15:47 | 45.36615 | 4.59820 | 35903 ft | 452 kts | 347° |
| 2026-05-06 15:48 | 45.42828 | 4.58390 | 35896 ft | 452 kts | 347° |
| 2026-05-06 15:48 | 45.49046 | 4.56956 | 35889 ft | 452 kts | 347° |
| 2026-05-06 15:49 | 45.55266 | 4.55518 | 35905 ft | 453 kts | 347° |
| 2026-05-06 15:49 | 45.61494 | 4.54075 | 35895 ft | 453 kts | 347° |
| 2026-05-06 15:50 | 45.67727 | 4.52628 | 35892 ft | 454 kts | 347° |
| 2026-05-06 15:50 | 45.73972 | 4.51175 | 35896 ft | 454 kts | 347° |
| 2026-05-06 15:51 | 45.80164 | 4.49734 | 35898 ft | 453 kts | 347° |
| 2026-05-06 15:51 | 45.86403 | 4.48281 | 35902 ft | 453 kts | 348° |
| 2026-05-06 15:52 | 45.92631 | 4.46825 | 35900 ft | 453 kts | 348° |
| 2026-05-06 15:52 | 45.98816 | 4.45377 | 35901 ft | 452 kts | 348° |
| 2026-05-06 15:53 | 46.05039 | 4.43916 | 35893 ft | 452 kts | 348° |
| 2026-05-06 15:53 | 46.11245 | 4.42455 | 35894 ft | 452 kts | 348° |
| 2026-05-06 15:54 | 46.17445 | 4.40993 | 35894 ft | 451 kts | 348° |
| 2026-05-06 15:54 | 46.23646 | 4.39527 | 35902 ft | 450 kts | 348° |
| 2026-05-06 15:55 | 46.29824 | 4.37997 | 35898 ft | 449 kts | 346° |
| 2026-05-06 15:55 | 46.35866 | 4.35950 | 35899 ft | 448 kts | 343° |
| 2026-05-06 15:56 | 46.41914 | 4.33737 | 35898 ft | 448 kts | 343° |
| 2026-05-06 15:56 | 46.47967 | 4.31563 | 35904 ft | 448 kts | 344° |
| 2026-05-06 15:57 | 46.54023 | 4.29423 | 35896 ft | 448 kts | 344° |
| 2026-05-06 15:57 | 46.60085 | 4.27290 | 35901 ft | 449 kts | 344° |
| 2026-05-06 15:58 | 46.66172 | 4.25142 | 35884 ft | 450 kts | 344° |
| 2026-05-06 15:58 | 46.72215 | 4.23004 | 35874 ft | 450 kts | 344° |
| 2026-05-06 15:59 | 46.78299 | 4.20845 | 35874 ft | 449 kts | 344° |
| 2026-05-06 15:59 | 46.84371 | 4.18686 | 35880 ft | 448 kts | 344° |
| 2026-05-06 16:00 | 46.90395 | 4.16539 | 35878 ft | 447 kts | 345° |
| 2026-05-06 16:00 | 46.96439 | 4.14379 | 35887 ft | 446 kts | 345° |
| 2026-05-06 16:01 | 47.01459 | 4.12581 | 35885 ft | 446 kts | 345° |
| 2026-05-06 16:01 | 47.07472 | 4.10335 | 35881 ft | 445 kts | 340° |
| 2026-05-06 16:02 | 47.13226 | 4.07058 | 35890 ft | 443 kts | 335° |
| 2026-05-06 16:02 | 47.18909 | 4.03551 | 35887 ft | 442 kts | 336° |
| 2026-05-06 16:03 | 47.24603 | 4.00099 | 35887 ft | 443 kts | 336° |
| 2026-05-06 16:03 | 47.30279 | 3.96709 | 35896 ft | 442 kts | 336° |
| 2026-05-06 16:04 | 47.36001 | 3.93299 | 35889 ft | 443 kts | 336° |
| 2026-05-06 16:04 | 47.41714 | 3.89883 | 35896 ft | 443 kts | 336° |
| 2026-05-06 16:05 | 47.47397 | 3.86476 | 35897 ft | 443 kts | 336° |
| 2026-05-06 16:05 | 47.53115 | 3.83039 | 35900 ft | 443 kts | 336° |
| 2026-05-06 16:06 | 47.58841 | 3.79596 | 35907 ft | 444 kts | 336° |
| 2026-05-06 16:06 | 47.64577 | 3.76158 | 35908 ft | 444 kts | 336° |